createdAt,value
2023-01-17T18:25:30.823Z,70.10
2023-01-17T18:27:58.251Z,70.10
2023-01-17T18:30:25.533Z,70.10
2023-01-17T18:32:52.891Z,70.30
2023-01-17T18:35:20.237Z,70.50
2023-01-17T18:37:47.617Z,70.90
2023-01-17T18:40:14.640Z,71.10
2023-01-17T18:42:41.605Z,71.30
2023-01-17T18:45:08.808Z,71.30
2023-01-17T18:47:38.779Z,71.50
2023-01-17T18:50:06.087Z,71.80
2023-01-17T18:52:35.099Z,72.00
2023-01-17T18:55:02.039Z,72.10
2023-01-17T18:57:28.913Z,72.10
2023-01-17T18:59:57.377Z,72.10
2023-01-17T19:02:24.256Z,72.20
2023-01-17T19:04:51.346Z,72.20
2023-01-17T19:07:18.598Z,72.40
2023-01-17T19:09:45.533Z,72.50
2023-01-17T19:12:12.623Z,72.60
2023-01-17T19:14:39.473Z,72.60
2023-01-17T19:17:06.378Z,72.80
2023-01-17T19:19:33.605Z,72.80
2023-01-17T19:22:01.105Z,72.90
2023-01-17T19:24:27.951Z,73.00
2023-01-17T19:26:54.844Z,73.20
2023-01-17T20:23:59.727Z,74.70
2023-01-17T20:26:34.547Z,75.00
2023-01-17T20:29:04.658Z,75.20
2023-01-17T20:31:39.014Z,75.20
2023-01-17T20:34:08.447Z,75.30
2023-01-17T20:36:37.116Z,75.30
2023-01-17T20:39:06.724Z,75.40
2023-01-17T20:41:36.697Z,75.40
2023-01-17T20:44:06.652Z,75.40
2023-01-17T20:46:40.745Z,75.30
2023-01-17T20:49:15.472Z,75.30
2023-01-17T20:51:44.667Z,75.20
2023-01-17T20:54:14.734Z,75.30
2023-01-17T20:56:43.164Z,75.50
2023-01-17T20:59:19.763Z,75.60
2023-01-17T21:01:47.883Z,75.70
2023-01-17T21:04:15.413Z,75.60
2023-01-17T21:06:44.385Z,75.60
